sensor_id;sensor_type;location;lat;lon;timestamp;P1;durP1;ratioP1;P2;durP2;ratioP2
37131;SDS011;23035;50.032;21.978;2023-02-01T00:01:17;11.25;;;6.38;;
37131;SDS011;23035;50.032;21.978;2023-02-01T00:06:23;13.53;;;7.47;;
37131;SDS011;23035;50.032;21.978;2023-02-01T00:11:28;13.73;;;5.93;;
37131;SDS011;23035;50.032;21.978;2023-02-01T00:16:32;9.88;;;4.93;;
37131;SDS011;23035;50.032;21.978;2023-02-01T00:21:38;8.70;;;4.72;;
37131;SDS011;23035;50.032;21.978;2023-02-01T00:26:44;8.20;;;4.43;;
37131;SDS011;23035;50.032;21.978;2023-02-01T00:31:49;9.98;;;4.95;;
37131;SDS011;23035;50.032;21.978;2023-02-01T00:36:57;8.57;;;4.20;;
37131;SDS011;23035;50.032;21.978;2023-02-01T00:42:02;7.38;;;3.92;;
37131;SDS011;23035;50.032;21.978;2023-02-01T00:47:07;6.40;;;4.00;;
37131;SDS011;23035;50.032;21.978;2023-02-01T00:52:14;4.67;;;3.20;;
37131;SDS011;23035;50.032;21.978;2023-02-01T00:57:18;6.18;;;3.45;;
37131;SDS011;23035;50.032;21.978;2023-02-01T01:02:23;12.63;;;6.70;;
37131;SDS011;23035;50.032;21.978;2023-02-01T01:07:32;13.15;;;6.38;;
37131;SDS011;23035;50.032;21.978;2023-02-01T01:12:36;7.20;;;3.40;;
37131;SDS011;23035;50.032;21.978;2023-02-01T01:17:41;4.03;;;2.55;;
37131;SDS011;23035;50.032;21.978;2023-02-01T01:22:47;5.95;;;2.80;;
37131;SDS011;23035;50.032;21.978;2023-02-01T01:27:51;5.28;;;2.95;;
37131;SDS011;23035;50.032;21.978;2023-02-01T01:32:56;9.98;;;3.65;;
37131;SDS011;23035;50.032;21.978;2023-02-01T01:38:02;8.43;;;2.88;;
37131;SDS011;23035;50.032;21.978;2023-02-01T01:43:11;5.28;;;2.50;;
37131;SDS011;23035;50.032;21.978;2023-02-01T01:48:18;6.70;;;3.47;;
37131;SDS011;23035;50.032;21.978;2023-02-01T01:53:33;6.13;;;2.92;;
37131;SDS011;23035;50.032;21.978;2023-02-01T01:58:41;4.93;;;3.17;;
37131;SDS011;23035;50.032;21.978;2023-02-01T02:03:46;5.80;;;3.10;;
37131;SDS011;23035;50.032;21.978;2023-02-01T02:13:58;8.93;;;2.70;;
37131;SDS011;23035;50.032;21.978;2023-02-01T02:19:19;3.60;;;2.53;;
37131;SDS011;23035;50.032;21.978;2023-02-01T02:24:55;5.45;;;2.30;;
37131;SDS011;23035;50.032;21.978;2023-02-01T02:35:47;5.00;;;2.25;;
37131;SDS011;23035;50.032;21.978;2023-02-01T02:41:05;4.75;;;2.90;;
37131;SDS011;23035;50.032;21.978;2023-02-01T02:46:38;5.23;;;2.97;;
37131;SDS011;23035;50.032;21.978;2023-02-01T02:52:09;6.82;;;2.58;;
37131;SDS011;23035;50.032;21.978;2023-02-01T02:57:38;6.50;;;3.30;;
37131;SDS011;23035;50.032;21.978;2023-02-01T03:03:03;6.07;;;2.95;;
37131;SDS011;23035;50.032;21.978;2023-02-01T03:08:27;9.23;;;3.45;;
37131;SDS011;23035;50.032;21.978;2023-02-01T03:13:35;6.93;;;3.00;;
37131;SDS011;23035;50.032;21.978;2023-02-01T03:18:48;8.90;;;3.70;;
37131;SDS011;23035;50.032;21.978;2023-02-01T03:24:00;7.18;;;3.05;;
37131;SDS011;23035;50.032;21.978;2023-02-01T03:29:11;7.13;;;3.30;;
37131;SDS011;23035;50.032;21.978;2023-02-01T03:34:20;6.82;;;2.83;;
37131;SDS011;23035;50.032;21.978;2023-02-01T03:39:29;7.13;;;2.65;;
37131;SDS011;23035;50.032;21.978;2023-02-01T03:44:38;9.88;;;3.83;;
37131;SDS011;23035;50.032;21.978;2023-02-01T03:49:49;6.85;;;2.80;;
37131;SDS011;23035;50.032;21.978;2023-02-01T03:54:59;6.90;;;2.65;;
37131;SDS011;23035;50.032;21.978;2023-02-01T04:00:06;6.68;;;2.45;;
37131;SDS011;23035;50.032;21.978;2023-02-01T04:05:15;6.95;;;2.33;;
37131;SDS011;23035;50.032;21.978;2023-02-01T04:10:42;8.13;;;2.53;;
37131;SDS011;23035;50.032;21.978;2023-02-01T04:15:47;9.02;;;3.00;;
37131;SDS011;23035;50.032;21.978;2023-02-01T04:20:53;8.40;;;3.17;;
37131;SDS011;23035;50.032;21.978;2023-02-01T04:26:02;7.15;;;3.22;;
37131;SDS011;23035;50.032;21.978;2023-02-01T04:31:08;6.20;;;2.72;;
37131;SDS011;23035;50.032;21.978;2023-02-01T04:36:14;9.48;;;3.60;;
37131;SDS011;23035;50.032;21.978;2023-02-01T04:41:23;6.53;;;2.40;;
37131;SDS011;23035;50.032;21.978;2023-02-01T04:46:28;8.50;;;3.03;;
37131;SDS011;23035;50.032;21.978;2023-02-01T04:51:32;9.83;;;3.03;;
37131;SDS011;23035;50.032;21.978;2023-02-01T04:56:38;7.53;;;2.30;;
37131;SDS011;23035;50.032;21.978;2023-02-01T05:01:43;9.20;;;2.50;;
37131;SDS011;23035;50.032;21.978;2023-02-01T05:06:50;7.65;;;2.53;;
37131;SDS011;23035;50.032;21.978;2023-02-01T05:11:56;7.75;;;2.35;;
37131;SDS011;23035;50.032;21.978;2023-02-01T05:17:18;14.23;;;4.20;;
37131;SDS011;23035;50.032;21.978;2023-02-01T05:22:22;5.70;;;2.95;;
37131;SDS011;23035;50.032;21.978;2023-02-01T05:32:35;13.85;;;2.97;;
37131;SDS011;23035;50.032;21.978;2023-02-01T05:37:39;8.95;;;2.20;;
37131;SDS011;23035;50.032;21.978;2023-02-01T05:42:45;5.97;;;2.35;;
37131;SDS011;23035;50.032;21.978;2023-02-01T05:47:50;11.90;;;2.97;;
37131;SDS011;23035;50.032;21.978;2023-02-01T05:52:55;12.07;;;2.30;;
37131;SDS011;23035;50.032;21.978;2023-02-01T05:58:01;11.77;;;3.33;;
37131;SDS011;23035;50.032;21.978;2023-02-01T06:03:05;9.93;;;2.90;;
37131;SDS011;23035;50.032;21.978;2023-02-01T06:08:11;13.13;;;3.17;;
37131;SDS011;23035;50.032;21.978;2023-02-01T06:13:17;10.23;;;2.40;;
37131;SDS011;23035;50.032;21.978;2023-02-01T06:18:23;11.02;;;3.63;;
37131;SDS011;23035;50.032;21.978;2023-02-01T06:23:28;9.47;;;2.40;;
37131;SDS011;23035;50.032;21.978;2023-02-01T06:28:34;8.43;;;2.83;;
37131;SDS011;23035;50.032;21.978;2023-02-01T06:33:39;14.30;;;4.15;;
37131;SDS011;23035;50.032;21.978;2023-02-01T06:38:58;12.07;;;4.18;;
37131;SDS011;23035;50.032;21.978;2023-02-01T06:44:05;6.97;;;2.47;;
37131;SDS011;23035;50.032;21.978;2023-02-01T06:49:10;11.77;;;3.53;;
37131;SDS011;23035;50.032;21.978;2023-02-01T06:54:15;7.87;;;2.80;;
37131;SDS011;23035;50.032;21.978;2023-02-01T06:59:21;10.73;;;3.07;;
37131;SDS011;23035;50.032;21.978;2023-02-01T07:04:26;21.10;;;5.28;;
37131;SDS011;23035;50.032;21.978;2023-02-01T07:09:30;13.05;;;4.68;;
37131;SDS011;23035;50.032;21.978;2023-02-01T07:14:36;13.82;;;3.53;;
37131;SDS011;23035;50.032;21.978;2023-02-01T07:19:41;16.45;;;4.15;;
37131;SDS011;23035;50.032;21.978;2023-02-01T07:24:48;23.33;;;6.10;;
37131;SDS011;23035;50.032;21.978;2023-02-01T07:29:54;19.52;;;5.05;;
37131;SDS011;23035;50.032;21.978;2023-02-01T07:34:59;19.45;;;3.85;;
37131;SDS011;23035;50.032;21.978;2023-02-01T07:40:04;19.90;;;4.70;;
37131;SDS011;23035;50.032;21.978;2023-02-01T07:50:28;18.63;;;5.03;;
37131;SDS011;23035;50.032;21.978;2023-02-01T07:55:33;15.57;;;4.20;;
37131;SDS011;23035;50.032;21.978;2023-02-01T08:00:40;14.52;;;4.35;;
37131;SDS011;23035;50.032;21.978;2023-02-01T08:06:03;16.10;;;4.38;;
37131;SDS011;23035;50.032;21.978;2023-02-01T08:11:09;16.58;;;4.80;;
37131;SDS011;23035;50.032;21.978;2023-02-01T08:16:15;22.92;;;4.93;;
37131;SDS011;23035;50.032;21.978;2023-02-01T08:21:22;15.23;;;5.05;;
37131;SDS011;23035;50.032;21.978;2023-02-01T08:26:28;11.48;;;4.20;;
37131;SDS011;23035;50.032;21.978;2023-02-01T08:31:34;15.48;;;4.53;;
37131;SDS011;23035;50.032;21.978;2023-02-01T08:36:39;13.38;;;4.38;;
37131;SDS011;23035;50.032;21.978;2023-02-01T08:41:45;15.13;;;5.55;;
37131;SDS011;23035;50.032;21.978;2023-02-01T08:47:12;15.82;;;5.05;;
37131;SDS011;23035;50.032;21.978;2023-02-01T08:52:17;12.13;;;4.18;;
37131;SDS011;23035;50.032;21.978;2023-02-01T08:57:22;17.10;;;4.65;;
37131;SDS011;23035;50.032;21.978;2023-02-01T09:02:29;14.27;;;4.28;;
37131;SDS011;23035;50.032;21.978;2023-02-01T09:07:34;17.90;;;4.35;;
37131;SDS011;23035;50.032;21.978;2023-02-01T09:12:38;14.50;;;5.07;;
37131;SDS011;23035;50.032;21.978;2023-02-01T09:17:44;13.43;;;4.15;;
37131;SDS011;23035;50.032;21.978;2023-02-01T09:22:49;14.50;;;4.80;;
37131;SDS011;23035;50.032;21.978;2023-02-01T09:27:54;11.48;;;4.32;;
37131;SDS011;23035;50.032;21.978;2023-02-01T09:33:00;13.18;;;5.00;;
37131;SDS011;23035;50.032;21.978;2023-02-01T09:38:05;18.85;;;4.63;;
37131;SDS011;23035;50.032;21.978;2023-02-01T09:43:13;12.30;;;4.43;;
37131;SDS011;23035;50.032;21.978;2023-02-01T09:48:28;15.77;;;4.53;;
37131;SDS011;23035;50.032;21.978;2023-02-01T09:53:37;25.83;;;8.43;;
37131;SDS011;23035;50.032;21.978;2023-02-01T09:58:45;13.57;;;5.07;;
37131;SDS011;23035;50.032;21.978;2023-02-01T10:03:58;19.42;;;6.05;;
37131;SDS011;23035;50.032;21.978;2023-02-01T10:09:10;18.10;;;6.22;;
37131;SDS011;23035;50.032;21.978;2023-02-01T10:19:56;14.65;;;4.97;;
37131;SDS011;23035;50.032;21.978;2023-02-01T10:25:12;15.55;;;5.18;;
37131;SDS011;23035;50.032;21.978;2023-02-01T10:30:23;17.83;;;5.20;;
37131;SDS011;23035;50.032;21.978;2023-02-01T10:35:33;20.25;;;5.35;;
37131;SDS011;23035;50.032;21.978;2023-02-01T10:40:41;19.35;;;4.28;;
37131;SDS011;23035;50.032;21.978;2023-02-01T10:45:46;21.67;;;5.95;;
37131;SDS011;23035;50.032;21.978;2023-02-01T10:50:53;23.10;;;4.50;;
37131;SDS011;23035;50.032;21.978;2023-02-01T10:56:05;18.30;;;5.40;;
37131;SDS011;23035;50.032;21.978;2023-02-01T11:01:15;15.27;;;5.28;;
37131;SDS011;23035;50.032;21.978;2023-02-01T11:06:26;14.85;;;4.95;;
37131;SDS011;23035;50.032;21.978;2023-02-01T11:11:32;16.27;;;5.03;;
37131;SDS011;23035;50.032;21.978;2023-02-01T11:16:57;14.77;;;4.75;;
37131;SDS011;23035;50.032;21.978;2023-02-01T11:22:04;16.63;;;5.05;;
37131;SDS011;23035;50.032;21.978;2023-02-01T11:27:12;23.23;;;6.00;;
37131;SDS011;23035;50.032;21.978;2023-02-01T11:32:28;22.67;;;6.40;;
37131;SDS011;23035;50.032;21.978;2023-02-01T11:37:37;15.52;;;4.80;;
37131;SDS011;23035;50.032;21.978;2023-02-01T11:42:52;16.13;;;5.40;;
37131;SDS011;23035;50.032;21.978;2023-02-01T11:47:58;16.15;;;4.78;;
37131;SDS011;23035;50.032;21.978;2023-02-01T11:53:14;14.37;;;4.47;;
37131;SDS011;23035;50.032;21.978;2023-02-01T11:58:36;14.23;;;4.53;;
37131;SDS011;23035;50.032;21.978;2023-02-01T12:09:38;11.35;;;4.47;;
37131;SDS011;23035;50.032;21.978;2023-02-01T12:14:55;14.68;;;4.35;;
37131;SDS011;23035;50.032;21.978;2023-02-01T12:20:13;16.05;;;5.32;;
37131;SDS011;23035;50.032;21.978;2023-02-01T12:25:31;14.75;;;4.38;;
37131;SDS011;23035;50.032;21.978;2023-02-01T12:30:47;16.85;;;4.25;;
37131;SDS011;23035;50.032;21.978;2023-02-01T12:36:14;16.40;;;4.97;;
37131;SDS011;23035;50.032;21.978;2023-02-01T12:46:56;22.25;;;6.55;;
37131;SDS011;23035;50.032;21.978;2023-02-01T12:52:06;25.10;;;8.15;;
37131;SDS011;23035;50.032;21.978;2023-02-01T12:57:21;22.30;;;8.80;;
37131;SDS011;23035;50.032;21.978;2023-02-01T13:02:31;17.60;;;6.65;;
37131;SDS011;23035;50.032;21.978;2023-02-01T13:07:44;14.93;;;4.95;;
37131;SDS011;23035;50.032;21.978;2023-02-01T13:12:56;13.05;;;3.67;;
37131;SDS011;23035;50.032;21.978;2023-02-01T13:18:06;17.60;;;4.55;;
37131;SDS011;23035;50.032;21.978;2023-02-01T13:23:18;23.38;;;5.47;;
37131;SDS011;23035;50.032;21.978;2023-02-01T13:28:34;11.18;;;4.10;;
37131;SDS011;23035;50.032;21.978;2023-02-01T13:33:57;16.08;;;5.30;;
37131;SDS011;23035;50.032;21.978;2023-02-01T13:39:49;28.23;;;10.20;;
37131;SDS011;23035;50.032;21.978;2023-02-01T13:45:16;18.35;;;6.55;;
37131;SDS011;23035;50.032;21.978;2023-02-01T13:50:26;17.65;;;7.07;;
37131;SDS011;23035;50.032;21.978;2023-02-01T13:55:34;15.02;;;5.63;;
37131;SDS011;23035;50.032;21.978;2023-02-01T14:00:43;16.67;;;5.95;;
37131;SDS011;23035;50.032;21.978;2023-02-01T14:05:55;25.45;;;7.65;;
37131;SDS011;23035;50.032;21.978;2023-02-01T14:11:06;21.15;;;7.70;;
37131;SDS011;23035;50.032;21.978;2023-02-01T14:16:40;24.60;;;8.38;;
37131;SDS011;23035;50.032;21.978;2023-02-01T14:21:48;20.05;;;6.63;;
37131;SDS011;23035;50.032;21.978;2023-02-01T14:27:02;19.90;;;6.97;;
37131;SDS011;23035;50.032;21.978;2023-02-01T14:32:23;16.95;;;6.80;;
37131;SDS011;23035;50.032;21.978;2023-02-01T14:37:30;19.80;;;6.85;;
37131;SDS011;23035;50.032;21.978;2023-02-01T14:42:39;22.92;;;8.15;;
37131;SDS011;23035;50.032;21.978;2023-02-01T14:47:49;27.80;;;8.75;;
37131;SDS011;23035;50.032;21.978;2023-02-01T15:03:49;39.70;;;12.52;;
37131;SDS011;23035;50.032;21.978;2023-02-01T15:09:00;19.33;;;7.68;;
37131;SDS011;23035;50.032;21.978;2023-02-01T15:14:11;28.27;;;9.57;;
37131;SDS011;23035;50.032;21.978;2023-02-01T15:19:20;32.42;;;12.50;;
37131;SDS011;23035;50.032;21.978;2023-02-01T15:24:26;24.25;;;9.98;;
37131;SDS011;23035;50.032;21.978;2023-02-01T15:29:32;23.20;;;9.73;;
37131;SDS011;23035;50.032;21.978;2023-02-01T15:34:47;22.33;;;9.10;;
37131;SDS011;23035;50.032;21.978;2023-02-01T15:40:05;23.33;;;8.27;;
37131;SDS011;23035;50.032;21.978;2023-02-01T15:45:25;10.27;;;3.95;;
37131;SDS011;23035;50.032;21.978;2023-02-01T15:50:33;11.75;;;4.80;;
37131;SDS011;23035;50.032;21.978;2023-02-01T15:55:38;9.50;;;4.30;;
37131;SDS011;23035;50.032;21.978;2023-02-01T16:00:45;7.63;;;3.47;;
37131;SDS011;23035;50.032;21.978;2023-02-01T16:05:57;15.13;;;5.70;;
37131;SDS011;23035;50.032;21.978;2023-02-01T16:11:23;12.57;;;5.30;;
37131;SDS011;23035;50.032;21.978;2023-02-01T16:16:33;20.08;;;7.75;;
37131;SDS011;23035;50.032;21.978;2023-02-01T16:21:39;18.57;;;6.27;;
37131;SDS011;23035;50.032;21.978;2023-02-01T16:26:44;29.00;;;11.80;;
37131;SDS011;23035;50.032;21.978;2023-02-01T16:31:48;17.52;;;7.43;;
37131;SDS011;23035;50.032;21.978;2023-02-01T16:36:55;18.40;;;8.00;;
37131;SDS011;23035;50.032;21.978;2023-02-01T16:42:00;23.48;;;10.32;;
37131;SDS011;23035;50.032;21.978;2023-02-01T16:47:11;17.95;;;6.78;;
37131;SDS011;23035;50.032;21.978;2023-02-01T16:52:20;17.02;;;7.30;;
37131;SDS011;23035;50.032;21.978;2023-02-01T16:57:26;15.20;;;7.05;;
37131;SDS011;23035;50.032;21.978;2023-02-01T17:07:38;14.65;;;8.68;;
37131;SDS011;23035;50.032;21.978;2023-02-01T17:12:45;15.95;;;7.32;;
37131;SDS011;23035;50.032;21.978;2023-02-01T17:17:49;15.68;;;7.07;;
37131;SDS011;23035;50.032;21.978;2023-02-01T17:23:04;21.92;;;7.97;;
37131;SDS011;23035;50.032;21.978;2023-02-01T17:28:10;13.38;;;6.38;;
37131;SDS011;23035;50.032;21.978;2023-02-01T17:33:17;14.77;;;5.83;;
37131;SDS011;23035;50.032;21.978;2023-02-01T17:38:29;16.27;;;7.15;;
37131;SDS011;23035;50.032;21.978;2023-02-01T17:43:34;18.45;;;9.00;;
37131;SDS011;23035;50.032;21.978;2023-02-01T17:48:38;22.85;;;9.23;;
37131;SDS011;23035;50.032;21.978;2023-02-01T17:53:47;20.25;;;8.68;;
37131;SDS011;23035;50.032;21.978;2023-02-01T17:58:57;29.73;;;13.05;;
37131;SDS011;23035;50.032;21.978;2023-02-01T18:04:10;26.38;;;12.70;;
37131;SDS011;23035;50.032;21.978;2023-02-01T18:09:23;19.88;;;9.30;;
37131;SDS011;23035;50.032;21.978;2023-02-01T18:14:30;19.38;;;7.53;;
37131;SDS011;23035;50.032;21.978;2023-02-01T18:19:38;22.77;;;8.63;;
37131;SDS011;23035;50.032;21.978;2023-02-01T18:24:50;33.97;;;14.13;;
37131;SDS011;23035;50.032;21.978;2023-02-01T18:29:55;38.63;;;16.48;;
37131;SDS011;23035;50.032;21.978;2023-02-01T18:35:01;29.27;;;12.95;;
37131;SDS011;23035;50.032;21.978;2023-02-01T18:40:08;20.73;;;9.30;;
37131;SDS011;23035;50.032;21.978;2023-02-01T18:45:21;17.25;;;8.15;;
37131;SDS011;23035;50.032;21.978;2023-02-01T18:50:30;19.00;;;6.88;;
37131;SDS011;23035;50.032;21.978;2023-02-01T18:55:38;16.98;;;6.93;;
37131;SDS011;23035;50.032;21.978;2023-02-01T19:00:51;17.13;;;7.85;;
37131;SDS011;23035;50.032;21.978;2023-02-01T19:05:57;16.65;;;6.13;;
37131;SDS011;23035;50.032;21.978;2023-02-01T19:11:05;18.40;;;7.35;;
37131;SDS011;23035;50.032;21.978;2023-02-01T19:16:12;15.77;;;6.57;;
37131;SDS011;23035;50.032;21.978;2023-02-01T19:21:16;17.60;;;6.47;;
37131;SDS011;23035;50.032;21.978;2023-02-01T19:26:22;16.10;;;6.93;;
37131;SDS011;23035;50.032;21.978;2023-02-01T19:31:27;19.13;;;6.57;;
37131;SDS011;23035;50.032;21.978;2023-02-01T19:36:32;12.70;;;5.53;;
37131;SDS011;23035;50.032;21.978;2023-02-01T19:41:45;23.58;;;9.05;;
37131;SDS011;23035;50.032;21.978;2023-02-01T19:46:49;12.00;;;5.95;;
37131;SDS011;23035;50.032;21.978;2023-02-01T19:51:54;17.95;;;8.68;;
37131;SDS011;23035;50.032;21.978;2023-02-01T19:57:00;35.87;;;14.83;;
37131;SDS011;23035;50.032;21.978;2023-02-01T20:02:06;26.42;;;11.30;;
37131;SDS011;23035;50.032;21.978;2023-02-01T20:07:12;20.30;;;10.40;;
37131;SDS011;23035;50.032;21.978;2023-02-01T20:12:18;15.33;;;7.33;;
37131;SDS011;23035;50.032;21.978;2023-02-01T20:17:23;22.63;;;10.18;;
37131;SDS011;23035;50.032;21.978;2023-02-01T20:22:28;21.33;;;9.68;;
37131;SDS011;23035;50.032;21.978;2023-02-01T20:27:34;23.77;;;9.05;;
37131;SDS011;23035;50.032;21.978;2023-02-01T20:32:39;22.63;;;8.23;;
37131;SDS011;23035;50.032;21.978;2023-02-01T20:37:44;19.40;;;8.02;;
37131;SDS011;23035;50.032;21.978;2023-02-01T20:42:49;24.40;;;8.85;;
37131;SDS011;23035;50.032;21.978;2023-02-01T20:47:54;36.47;;;12.70;;
37131;SDS011;23035;50.032;21.978;2023-02-01T20:52:59;23.23;;;7.95;;
37131;SDS011;23035;50.032;21.978;2023-02-01T20:58:05;24.05;;;8.20;;
37131;SDS011;23035;50.032;21.978;2023-02-01T21:03:10;20.83;;;7.32;;
37131;SDS011;23035;50.032;21.978;2023-02-01T21:08:14;20.02;;;7.68;;
37131;SDS011;23035;50.032;21.978;2023-02-01T21:13:21;17.48;;;7.60;;
37131;SDS011;23035;50.032;21.978;2023-02-01T21:18:26;20.70;;;7.75;;
37131;SDS011;23035;50.032;21.978;2023-02-01T21:23:30;22.60;;;9.20;;
37131;SDS011;23035;50.032;21.978;2023-02-01T21:28:37;27.17;;;9.13;;
37131;SDS011;23035;50.032;21.978;2023-02-01T21:33:42;40.38;;;15.73;;
37131;SDS011;23035;50.032;21.978;2023-02-01T21:38:49;37.47;;;13.35;;
37131;SDS011;23035;50.032;21.978;2023-02-01T21:43:58;76.97;;;20.38;;
37131;SDS011;23035;50.032;21.978;2023-02-01T21:49:02;61.38;;;19.33;;
37131;SDS011;23035;50.032;21.978;2023-02-01T21:54:10;40.30;;;14.15;;
37131;SDS011;23035;50.032;21.978;2023-02-01T21:59:16;35.17;;;12.63;;
37131;SDS011;23035;50.032;21.978;2023-02-01T22:04:21;42.17;;;16.42;;
37131;SDS011;23035;50.032;21.978;2023-02-01T22:09:26;22.17;;;9.60;;
37131;SDS011;23035;50.032;21.978;2023-02-01T22:14:32;19.17;;;7.35;;
37131;SDS011;23035;50.032;21.978;2023-02-01T22:19:37;16.05;;;6.22;;
37131;SDS011;23035;50.032;21.978;2023-02-01T22:24:42;28.02;;;8.73;;
37131;SDS011;23035;50.032;21.978;2023-02-01T22:29:48;22.45;;;8.60;;
37131;SDS011;23035;50.032;21.978;2023-02-01T22:34:53;38.08;;;14.75;;
37131;SDS011;23035;50.032;21.978;2023-02-01T22:39:57;21.27;;;9.63;;
37131;SDS011;23035;50.032;21.978;2023-02-01T22:45:05;18.27;;;6.45;;
37131;SDS011;23035;50.032;21.978;2023-02-01T22:50:10;19.20;;;7.82;;
37131;SDS011;23035;50.032;21.978;2023-02-01T22:55:15;27.23;;;13.68;;
37131;SDS011;23035;50.032;21.978;2023-02-01T23:00:21;25.27;;;10.57;;
37131;SDS011;23035;50.032;21.978;2023-02-01T23:05:30;25.17;;;11.07;;
37131;SDS011;23035;50.032;21.978;2023-02-01T23:10:55;11.45;;;5.85;;
37131;SDS011;23035;50.032;21.978;2023-02-01T23:16:04;17.42;;;6.68;;
37131;SDS011;23035;50.032;21.978;2023-02-01T23:21:10;22.75;;;11.90;;
37131;SDS011;23035;50.032;21.978;2023-02-01T23:26:16;18.95;;;8.32;;
37131;SDS011;23035;50.032;21.978;2023-02-01T23:36:29;24.83;;;9.57;;
37131;SDS011;23035;50.032;21.978;2023-02-01T23:41:35;35.28;;;17.42;;
37131;SDS011;23035;50.032;21.978;2023-02-01T23:46:41;18.98;;;9.88;;
37131;SDS011;23035;50.032;21.978;2023-02-01T23:51:49;16.50;;;7.20;;
37131;SDS011;23035;50.032;21.978;2023-02-01T23:56:54;25.67;;;11.63;;
